Time;durP1;ratioP1;P1;durP2;ratioP2;P2;SDS_P1;SDS_P2;PMS_P1;PMS_P2;Temp;Humidity;BMP_temperature;BMP_pressure;BME280_temperature;BME280_humidity;BME280_pressure;Samples;Min_cycle;Max_cycle;Signal;HPM_P1;HPM_P2
2023/02/19 00:04:08;;;;;;;2.30;0.65;;;;;;;8.04;100.00;98443.16;15267887;19;20108;-55
2023/02/19 00:09:37;;;;;;;0.50;0.50;;;;;;;7.90;100.00;98473.94;15262497;19;20010;-48
2023/02/19 00:15:01;;;;;;;0.52;0.52;;;;;;;7.81;100.00;98492.59;15269593;19;20661;-54
2023/02/19 00:20:26;;;;;;;0.70;0.70;;;;;;;7.80;100.00;98485.53;15271371;19;20010;-54
2023/02/19 00:25:53;;;;;;;1.25;0.73;;;;;;;7.75;100.00;98490.50;15268595;19;20006;-53
2023/02/19 00:31:36;;;;;;;0.90;0.90;;;;;;;7.73;100.00;98484.44;15279568;19;20014;-52
2023/02/19 00:37:00;;;;;;;3.22;1.20;;;;;;;7.70;100.00;98485.53;15284003;19;20026;-54
2023/02/19 00:42:27;;;;;;;1.15;1.00;;;;;;;7.65;100.00;98477.09;15284152;19;20025;-52
2023/02/19 00:47:59;;;;;;;1.48;1.02;;;;;;;7.64;100.00;98469.19;15285858;19;20479;-50
2023/02/19 00:53:24;;;;;;;1.27;0.98;;;;;;;7.61;100.00;98454.22;15280196;19;20025;-50
2023/02/19 00:58:51;;;;;;;2.00;0.60;;;;;;;7.63;100.00;98433.47;15281591;19;20021;-50
2023/02/19 01:04:16;;;;;;;0.80;0.80;;;;;;;7.65;100.00;98417.22;15281042;19;20023;-51
2023/02/19 01:09:47;;;;;;;1.88;0.90;;;;;;;7.63;100.00;98406.66;15271200;19;20010;-51
2023/02/19 01:15:15;;;;;;;1.10;1.00;;;;;;;7.62;100.00;98396.09;15283014;19;20010;-51
2023/02/19 01:20:39;;;;;;;0.82;0.82;;;;;;;7.60;100.00;98393.53;15280231;19;20018;-53
2023/02/19 01:26:07;;;;;;;1.25;0.80;;;;;;;7.61;100.00;98389.88;15277838;19;20037;-53
2023/02/19 01:31:35;;;;;;;0.90;0.90;;;;;;;7.59;100.00;98374.91;15275602;19;20039;-54
2023/02/19 01:37:00;;;;;;;1.05;0.90;;;;;;;7.61;100.00;98351.50;15280995;19;20014;-51
2023/02/19 01:42:26;;;;;;;1.42;0.90;;;;;;;7.60;100.00;98347.94;15273855;19;20019;-54
2023/02/19 01:48:01;;;;;;;1.70;1.10;;;;;;;7.61;100.00;98336.25;15281232;19;20014;-52
2023/02/19 01:53:31;;;;;;;2.08;1.00;;;;;;;7.59;100.00;98322.13;15275870;19;20035;-55
2023/02/19 01:58:56;;;;;;;1.00;0.90;;;;;;;7.59;100.00;98315.94;15277514;19;20524;-53
2023/02/19 02:04:25;;;;;;;1.17;0.88;;;;;;;7.59;100.00;98316.75;15277463;19;20021;-52
2023/02/19 02:15:42;;;;;;;1.13;0.80;;;;;;;7.64;100.00;98282.34;15268547;19;20500;-54
2023/02/19 02:21:36;;;;;;;0.60;0.60;;;;;;;7.65;100.00;98277.81;15272651;19;20034;-53
2023/02/19 02:27:20;;;;;;;0.68;0.68;;;;;;;7.65;100.00;98261.72;15274248;19;20039;-51
2023/02/19 02:32:54;;;;;;;1.00;0.50;;;;;;;7.69;100.00;98242.53;15268633;19;20010;-52
2023/02/19 02:38:26;;;;;;;0.82;0.50;;;;;;;7.71;100.00;98229.78;15274001;19;20014;-53
2023/02/19 02:43:51;;;;;;;0.43;0.43;;;;;;;7.74;100.00;98228.69;15270497;19;20010;-54
2023/02/19 02:49:25;;;;;;;0.30;0.30;;;;;;;7.83;100.00;98194.75;15267430;19;20014;-55
2023/02/19 02:55:05;;;;;;;0.35;0.35;;;;;;;7.91;100.00;98176.09;15266906;19;20018;-50
2023/02/19 03:02:09;;;;;;;0.40;0.40;;;;;;;7.95;100.00;98172.09;15269814;19;20089;-52
2023/02/19 03:06:32;;;;;;;0.30;0.30;;;;;;;8.03;100.00;98149.88;15271777;19;20476;-53
2023/02/19 03:29:24;;;;;;;0.35;0.35;;;;;;;8.24;100.00;98112.00;15270897;19;20018;-51
2023/02/19 03:34:57;;;;;;;0.60;0.30;;;;;;;8.32;100.00;98108.56;15269541;19;20025;-53
2023/02/19 03:40:25;;;;;;;0.30;0.30;;;;;;;8.41;100.00;98088.84;15273022;19;20045;-53
2023/02/19 03:46:00;;;;;;;0.30;0.30;;;;;;;8.42;100.00;98095.03;15275116;19;20899;-55
2023/02/19 03:51:39;;;;;;;0.20;0.20;;;;;;;8.43;100.00;98099.41;15263080;19;20044;-54
2023/02/19 03:57:13;;;;;;;0.20;0.20;;;;;;;8.51;100.00;98099.53;15273701;19;20074;-52
2023/02/19 04:02:42;;;;;;;0.65;0.30;;;;;;;8.50;100.00;98100.53;15268027;19;20038;-49
2023/02/19 04:08:14;;;;;;;0.57;0.20;;;;;;;8.56;100.00;98094.50;15277807;19;20039;-54
2023/02/19 04:13:52;;;;;;;0.20;0.20;;;;;;;8.61;100.00;98094.91;15275247;19;20081;-52
2023/02/19 04:19:28;;;;;;;0.30;0.20;;;;;;;8.69;100.00;98109.38;15284824;19;20102;-54
2023/02/19 04:24:56;;;;;;;0.50;0.22;;;;;;;8.69;100.00;98096.81;15274222;19;20029;-50
2023/02/19 04:30:23;;;;;;;0.20;0.20;;;;;;;8.78;100.00;98092.31;15283039;19;20025;-51
2023/02/19 04:35:48;;;;;;;0.25;0.25;;;;;;;8.72;100.00;98088.41;15278274;19;20033;-51
2023/02/19 04:41:13;;;;;;;0.35;0.30;;;;;;;8.86;100.00;98073.56;15278594;19;20014;-53
2023/02/19 04:46:41;;;;;;;0.38;0.38;;;;;;;8.82;100.00;98109.81;15283887;19;20037;-51
2023/02/19 04:52:05;;;;;;;0.32;0.32;;;;;;;8.84;100.00;98110.50;15280023;19;20018;-56
2023/02/19 04:57:30;;;;;;;0.30;0.30;;;;;;;8.91;100.00;98103.47;15272402;19;20015;-54
2023/02/19 05:02:57;;;;;;;0.30;0.30;;;;;;;8.90;100.00;98135.88;15237470;19;20020;-51
2023/02/19 05:08:28;;;;;;;0.38;0.38;;;;;;;8.83;100.00;98118.69;15275641;19;20014;-53
2023/02/19 05:13:53;;;;;;;1.20;0.50;;;;;;;8.62;100.00;98133.31;15275562;19;20044;-50
2023/02/19 05:19:21;;;;;;;0.50;0.50;;;;;;;8.48;100.00;98137.41;15280394;19;20010;-54
2023/02/19 05:24:46;;;;;;;0.65;0.50;;;;;;;8.39;100.00;98143.69;15278192;19;20011;-54
2023/02/19 05:30:10;;;;;;;1.98;0.60;;;;;;;8.27;100.00;98169.91;15273051;19;20536;-51
2023/02/19 05:35:42;;;;;;;0.65;0.60;;;;;;;8.15;100.00;98180.03;15271952;19;20037;-54
2023/02/19 05:41:15;;;;;;;0.50;0.40;;;;;;;8.16;100.00;98206.69;15278775;19;20022;-55
2023/02/19 05:46:40;;;;;;;0.40;0.30;;;;;;;8.02;100.00;98247.44;15287635;19;20015;-54
2023/02/19 05:52:07;;;;;;;0.40;0.40;;;;;;;7.99;100.00;98224.44;15281118;19;20018;-56
2023/02/19 05:57:32;;;;;;;0.98;0.20;;;;;;;7.80;100.00;98216.50;15279631;19;20022;-57
2023/02/19 06:02:59;;;;;;;0.40;0.20;;;;;;;7.74;100.00;98238.53;15265186;19;20019;-52
2023/02/19 06:08:27;;;;;;;1.05;0.20;;;;;;;7.56;100.00;98266.13;15276170;19;20029;-53
2023/02/19 06:13:52;;;;;;;0.10;0.10;;;;;;;7.50;100.00;98254.16;15274667;19;20045;-56
2023/02/19 06:19:17;;;;;;;0.28;0.20;;;;;;;7.37;100.00;98238.38;15271254;19;20014;-54
2023/02/19 06:24:44;;;;;;;0.93;0.10;;;;;;;7.31;100.00;98249.69;15275368;19;20019;-52
2023/02/19 06:30:11;;;;;;;0.35;0.10;;;;;;;7.27;100.00;98248.28;15272072;19;20090;-53
2023/02/19 06:35:35;;;;;;;0.10;0.10;;;;;;;7.19;100.00;98272.28;15273381;19;20081;-50
2023/02/19 06:41:06;;;;;;;0.30;0.20;;;;;;;7.28;100.00;98263.38;15273262;19;20014;-55
2023/02/19 06:46:30;;;;;;;0.50;0.20;;;;;;;7.30;100.00;98279.31;15274157;19;20493;-51
2023/02/19 06:51:55;;;;;;;0.63;0.30;;;;;;;7.28;100.00;98298.22;15272899;19;20018;-53
2023/02/19 06:57:22;;;;;;;0.88;0.65;;;;;;;7.28;100.00;98319.66;15269447;19;20494;-53
2023/02/19 07:02:47;;;;;;;1.15;0.98;;;;;;;7.39;100.00;98321.34;15270516;19;20096;-54
2023/02/19 07:08:18;;;;;;;1.10;0.80;;;;;;;7.43;100.00;98337.97;15269484;19;20018;-53
2023/02/19 07:13:49;;;;;;;0.50;0.50;;;;;;;7.46;100.00;98343.06;15271177;19;20022;-52
2023/02/19 07:19:13;;;;;;;1.10;0.40;;;;;;;7.40;100.00;98360.56;15265787;19;20053;-54
2023/02/19 07:24:38;;;;;;;2.58;1.60;;;;;;;7.39;100.00;98350.81;15267992;19;20015;-52
2023/02/19 07:30:07;;;;;;;10.55;9.45;;;;;;;7.37;100.00;98359.00;15268994;19;20018;-55
2023/02/19 07:35:32;;;;;;;0.95;0.85;;;;;;;7.45;100.00;98358.28;15272839;19;20119;-51
2023/02/19 07:41:00;;;;;;;0.85;0.20;;;;;;;7.49;100.00;98353.47;15265668;19;20018;-54
2023/02/19 07:46:28;;;;;;;0.60;0.40;;;;;;;7.51;100.00;98372.94;15272499;19;20363;-54
2023/02/19 07:51:52;;;;;;;0.30;0.30;;;;;;;7.56;100.00;98384.09;15266959;19;20018;-53
2023/02/19 07:57:17;;;;;;;0.70;0.40;;;;;;;7.61;100.00;98379.13;15272799;19;21065;-57
2023/02/19 08:08:22;;;;;;;0.50;0.30;;;;;;;7.74;100.00;98381.53;15270358;19;20015;-57
2023/02/19 08:13:46;;;;;;;0.57;0.30;;;;;;;7.75;100.00;98383.22;15259148;19;20019;-56
2023/02/19 08:19:14;;;;;;;0.43;0.40;;;;;;;7.80;100.00;98394.34;15265491;19;20341;-56
2023/02/19 08:24:41;;;;;;;0.63;0.50;;;;;;;7.85;100.00;98401.97;15261870;19;20029;-57
2023/02/19 08:30:07;;;;;;;0.65;0.65;;;;;;;7.87;100.00;98410.72;15263690;19;20029;-57
2023/02/19 08:35:35;;;;;;;1.92;0.80;;;;;;;7.93;100.00;98426.25;15266720;19;20014;-58
2023/02/19 08:41:00;;;;;;;0.55;0.55;;;;;;;7.74;100.00;98462.00;15260820;19;20011;-56
2023/02/19 08:46:24;;;;;;;0.40;0.40;;;;;;;6.54;100.00;98473.59;15266281;19;20003;-54
2023/02/19 08:51:54;;;;;;;1.63;1.00;;;;;;;5.98;100.00;98491.72;15271169;19;20047;-55
2023/02/19 08:57:18;;;;;;;1.13;1.00;;;;;;;5.58;100.00;98501.25;15284563;19;20360;-56
2023/02/19 09:02:43;;;;;;;2.28;1.80;;;;;;;5.27;100.00;98546.53;15274135;19;20090;-54
2023/02/19 09:08:18;;;;;;;2.42;2.20;;;;;;;4.94;100.00;98581.16;15272100;19;20493;-55
2023/02/19 09:13:43;;;;;;;3.10;2.63;;;;;;;4.73;100.00;98607.72;15271000;19;20024;-56
2023/02/19 09:19:07;;;;;;;1.92;1.75;;;;;;;4.60;100.00;98594.50;15280977;19;20017;-55
2023/02/19 09:24:35;;;;;;;1.55;1.45;;;;;;;4.42;100.00;98615.44;15275002;19;20014;-56
2023/02/19 09:29:59;;;;;;;2.17;1.65;;;;;;;4.25;100.00;98643.38;15276418;19;20018;-57
2023/02/19 09:35:24;;;;;;;2.85;2.40;;;;;;;4.21;100.00;98670.41;15273942;19;20019;-55
2023/02/19 09:40:51;;;;;;;2.05;1.65;;;;;;;4.13;100.00;98687.81;15269812;19;20391;-53
2023/02/19 09:46:25;;;;;;;2.30;1.60;;;;;;;4.06;100.00;98691.06;15271304;19;21029;-54
2023/02/19 09:51:56;;;;;;;2.35;2.10;;;;;;;4.05;100.00;98706.19;15274198;19;20022;-54
2023/02/19 09:57:25;;;;;;;3.50;2.43;;;;;;;4.09;100.00;98717.47;15277827;19;20082;-50
2023/02/19 10:02:49;;;;;;;2.58;2.38;;;;;;;4.06;100.00;98736.41;15271670;19;20482;-54
2023/02/19 10:08:20;;;;;;;6.38;4.68;;;;;;;4.00;100.00;98759.84;15276921;19;20364;-55
2023/02/19 10:13:50;;;;;;;5.77;4.17;;;;;;;3.95;100.00;98779.81;15249939;19;20021;-57
2023/02/19 10:19:17;;;;;;;8.45;5.43;;;;;;;3.97;100.00;98802.72;15270227;19;20055;-56
2023/02/19 10:24:41;;;;;;;7.20;5.68;;;;;;;4.03;100.00;98806.75;15275487;19;20021;-56
2023/02/19 10:30:20;;;;;;;5.68;4.15;;;;;;;4.01;100.00;98822.00;15277813;19;20019;-57
2023/02/19 10:35:57;;;;;;;1.70;1.30;;;;;;;3.81;100.00;98810.13;15273410;19;20452;-57
2023/02/19 10:41:26;;;;;;;1.88;1.40;;;;;;;3.84;100.00;98809.88;15274564;19;20018;-54
2023/02/19 10:46:56;;;;;;;1.10;1.00;;;;;;;3.80;100.00;98809.25;15276289;19;20364;-56
2023/02/19 10:52:27;;;;;;;2.20;1.05;;;;;;;3.78;100.00;98819.19;15268015;19;20472;-54
2023/02/19 10:57:51;;;;;;;1.45;1.20;;;;;;;3.75;100.00;98808.75;15276392;19;20014;-52
2023/02/19 11:03:24;;;;;;;2.25;1.35;;;;;;;3.78;100.00;98802.34;15269089;19;20022;-55
2023/02/19 11:08:57;;;;;;;1.52;1.42;;;;;;;3.96;100.00;98814.34;15270326;19;20021;-55
2023/02/19 11:14:25;;;;;;;2.70;2.10;;;;;;;4.23;100.00;98839.16;15267652;19;20022;-56
2023/02/19 11:19:53;;;;;;;1.50;1.40;;;;;;;4.35;100.00;98845.41;15272460;19;20017;-56
2023/02/19 11:25:24;;;;;;;1.50;1.40;;;;;;;4.39;100.00;98833.56;15270064;19;20078;-52
2023/02/19 11:30:49;;;;;;;1.60;0.90;;;;;;;4.38;100.00;98845.19;15311182;19;20011;-55
2023/02/19 11:36:28;;;;;;;1.17;0.80;;;;;;;4.41;100.00;98859.16;14761140;19;10000166;-55
2023/02/19 11:42:10;;;;;;;1.20;0.70;;;;;;;4.43;100.00;98856.38;15269618;19;20014;-56
2023/02/19 11:48:10;;;;;;;0.93;0.80;;;;;;;4.51;100.00;98853.16;15262069;19;20025;-56
2023/02/19 11:53:40;;;;;;;1.50;1.00;;;;;;;4.50;100.00;98835.44;15265474;19;20024;-54
2023/02/19 11:59:14;;;;;;;1.50;1.00;;;;;;;4.53;100.00;98841.38;15258197;19;20013;-53
2023/02/19 12:05:19;;;;;;;0.75;0.73;;;;;;;4.52;100.00;98838.84;15264137;19;20011;-51
2023/02/19 12:11:19;;;;;;;1.70;0.85;;;;;;;4.60;100.00;98855.13;15261894;19;20066;-53
2023/02/19 12:16:49;;;;;;;1.17;0.70;;;;;;;4.65;100.00;98850.31;15269941;19;20264;-55
2023/02/19 12:22:36;;;;;;;0.90;0.80;;;;;;;4.73;100.00;98849.75;15264569;19;20052;-52
2023/02/19 12:28:43;;;;;;;0.93;0.70;;;;;;;4.82;100.00;98862.44;15277019;19;21083;-56
2023/02/19 12:34:25;;;;;;;1.23;0.50;;;;;;;4.70;100.00;98841.97;15278359;19;20547;-55
2023/02/19 12:40:04;;;;;;;1.02;0.43;;;;;;;4.74;100.00;98851.47;15278170;19;20021;-52
2023/02/19 12:45:40;;;;;;;3.80;3.00;;;;;;;4.83;100.00;98860.59;15282668;19;20050;-53
2023/02/19 12:51:11;;;;;;;27.83;25.38;;;;;;;4.87;100.00;98867.41;15275981;19;21391;-50
2023/02/19 12:56:42;;;;;;;31.40;28.45;;;;;;;4.96;100.00;98864.06;15284405;19;20766;-55
2023/02/19 13:02:17;;;;;;;1.45;0.70;;;;;;;4.96;100.00;98873.91;15273329;19;20012;-56
2023/02/19 13:07:55;;;;;;;1.20;0.50;;;;;;;4.97;100.00;98887.13;15278326;19;20223;-54
2023/02/19 13:13:24;;;;;;;1.00;0.60;;;;;;;4.92;100.00;98878.63;15273005;19;20537;-54
2023/02/19 13:18:57;;;;;;;1.33;1.17;;;;;;;4.98;100.00;98882.66;15280023;19;20024;-55
2023/02/19 13:24:26;;;;;;;1.00;0.50;;;;;;;4.94;100.00;98885.53;15277292;19;20020;-56
2023/02/19 13:30:24;;;;;;;2.55;2.35;;;;;;;4.99;100.00;98876.34;15279133;19;20011;-57
2023/02/19 13:36:21;;;;;;;0.63;0.30;;;;;;;5.01;100.00;98893.94;15267706;19;20701;-56
2023/02/19 13:41:50;;;;;;;0.75;0.32;;;;;;;4.96;100.00;98887.25;15274799;19;20784;-54
2023/02/19 13:47:44;;;;;;;1.15;0.40;;;;;;;4.97;100.00;98897.81;15278551;19;20025;-57
2023/02/19 13:53:47;;;;;;;1.75;0.73;;;;;;;5.02;100.00;98903.66;15274531;19;20356;-51
2023/02/19 13:59:25;;;;;;;;;;;;;;;4.97;100.00;98903.16;15277678;19;20360;-52
2023/02/19 14:04:59;;;;;;;1.42;0.60;;;;;;;5.07;100.00;98914.84;15267629;19;20345;-56
2023/02/19 14:11:04;;;;;;;1.10;0.40;;;;;;;5.08;100.00;98934.41;15270598;19;20021;-54
2023/02/19 14:16:59;;;;;;;1.45;0.55;;;;;;;5.05;100.00;98947.97;15272368;19;20474;-56
2023/02/19 14:23:03;;;;;;;1.73;0.50;;;;;;;4.97;100.00;98961.06;15220318;19;20017;-53
2023/02/19 14:28:35;;;;;;;0.85;0.50;;;;;;;4.94;100.00;98970.13;15275799;19;20017;-55
2023/02/19 14:34:06;;;;;;;0.73;0.50;;;;;;;4.96;100.00;98964.69;15273162;19;20038;-56
2023/02/19 14:39:34;;;;;;;0.40;0.40;;;;;;;4.99;100.00;98929.75;15266773;19;20014;-57
2023/02/19 14:45:01;;;;;;;0.35;0.28;;;;;;;4.93;100.00;98939.91;15274412;19;20018;-56
2023/02/19 14:50:35;;;;;;;1.98;0.43;;;;;;;4.91;100.00;98936.50;15267234;19;20011;-54
2023/02/19 14:56:08;;;;;;;2.08;0.47;;;;;;;4.86;100.00;98933.31;15255704;19;20014;-54
2023/02/19 15:01:39;;;;;;;0.65;0.40;;;;;;;4.91;100.00;98941.00;15268801;19;20477;-57
2023/02/19 15:07:09;;;;;;;2.20;1.17;;;;;;;4.92;100.00;98932.88;15263567;19;20025;-54
2023/02/19 15:12:38;;;;;;;4.28;3.70;;;;;;;4.94;100.00;98930.94;15265651;19;20380;-52
2023/02/19 15:18:03;;;;;;;0.80;0.60;;;;;;;4.93;100.00;98939.91;15272676;19;20031;-51
2023/02/19 15:23:32;;;;;;;1.02;0.50;;;;;;;4.93;100.00;98945.25;15268859;19;20022;-53
2023/02/19 15:29:03;;;;;;;0.52;0.30;;;;;;;4.90;100.00;98940.13;15265056;19;20443;-51
2023/02/19 15:34:29;;;;;;;1.30;0.57;;;;;;;4.88;100.00;98943.88;15270170;19;20014;-53
2023/02/19 15:39:58;;;;;;;0.45;0.40;;;;;;;4.85;100.00;98946.78;15269526;19;20483;-54
2023/02/19 15:45:29;;;;;;;1.15;0.93;;;;;;;4.84;100.00;98945.94;15265876;19;20010;-52
2023/02/19 15:51:03;;;;;;;0.82;0.60;;;;;;;4.75;100.00;98952.78;15272314;19;20014;-49
2023/02/19 15:56:35;;;;;;;2.35;0.60;;;;;;;4.76;100.00;98959.00;15262667;19;20018;-50
2023/02/19 16:02:02;;;;;;;0.80;0.50;;;;;;;4.72;100.00;98966.34;15289681;19;20361;-56
2023/02/19 16:07:34;;;;;;;0.35;0.30;;;;;;;4.73;100.00;98959.19;15281180;19;20015;-52
2023/02/19 16:13:04;;;;;;;0.73;0.32;;;;;;;4.68;100.00;98966.69;15284116;19;20023;-52
2023/02/19 16:18:28;;;;;;;1.00;0.45;;;;;;;4.65;100.00;98977.56;15283415;19;20015;-52
2023/02/19 16:23:58;;;;;;;0.30;0.30;;;;;;;4.61;100.00;98985.81;15278336;19;20015;-53
2023/02/19 16:29:30;;;;;;;1.02;0.80;;;;;;;4.54;100.00;98992.53;15278716;19;20417;-53
2023/02/19 16:34:54;;;;;;;0.85;0.60;;;;;;;4.48;100.00;99003.66;15285139;19;20066;-52
2023/02/19 16:40:58;;;;;;;0.95;0.50;;;;;;;4.40;100.00;99008.69;15280608;19;20014;-54
2023/02/19 16:46:25;;;;;;;1.23;1.00;;;;;;;4.35;100.00;99024.97;15271454;19;20028;-53
2023/02/19 16:51:53;;;;;;;1.50;1.00;;;;;;;4.29;100.00;99034.25;15278730;19;20094;-50
2023/02/19 16:57:28;;;;;;;2.27;1.10;;;;;;;4.23;100.00;99048.03;15270401;19;20019;-51
2023/02/19 17:02:58;;;;;;;1.20;1.10;;;;;;;4.20;100.00;99068.75;15278232;19;20018;-47
2023/02/19 17:08:37;;;;;;;1.50;1.40;;;;;;;4.15;100.00;99075.22;15279232;19;20006;-51
2023/02/19 17:14:03;;;;;;;2.50;2.30;;;;;;;4.10;100.00;99069.38;15275191;19;20015;-51
2023/02/19 17:19:31;;;;;;;2.65;1.80;;;;;;;4.05;100.00;99076.81;15276740;19;20010;-50
2023/02/19 17:24:55;;;;;;;5.05;1.77;;;;;;;4.00;100.00;99084.25;15278928;19;20014;-54
2023/02/19 17:30:25;;;;;;;2.17;1.50;;;;;;;3.93;100.00;99085.63;15279947;19;20015;-57
2023/02/19 17:35:52;;;;;;;1.15;1.08;;;;;;;3.84;100.00;99087.09;15277347;19;20653;-54
2023/02/19 17:41:18;;;;;;;1.52;1.40;;;;;;;3.80;100.00;99088.28;15275483;19;20388;-54
2023/02/19 17:46:43;;;;;;;1.45;1.25;;;;;;;3.78;100.00;99092.84;15273726;19;20016;-54
2023/02/19 17:52:11;;;;;;;3.67;1.33;;;;;;;3.76;100.00;99105.41;15272067;19;20014;-55
2023/02/19 17:57:42;;;;;;;3.45;1.17;;;;;;;3.76;100.00;99119.63;15272655;19;20756;-53
2023/02/19 18:03:07;;;;;;;1.37;1.27;;;;;;;3.77;100.00;99123.13;15272279;19;20022;-54
2023/02/19 18:08:35;;;;;;;1.73;1.27;;;;;;;3.78;100.00;99138.16;15276474;19;20339;-56
2023/02/19 18:13:59;;;;;;;1.98;1.30;;;;;;;3.79;100.00;99145.22;15275955;19;20017;-54
2023/02/19 18:19:24;;;;;;;1.55;1.30;;;;;;;3.78;100.00;99140.81;15277548;19;21022;-51
2023/02/19 18:24:53;;;;;;;2.80;1.50;;;;;;;3.75;100.00;99133.91;15262906;19;20086;-49
2023/02/19 18:30:21;;;;;;;4.22;1.50;;;;;;;3.74;100.00;99131.31;15243385;19;20113;-50
2023/02/19 18:35:49;;;;;;;2.28;1.63;;;;;;;3.68;100.00;99143.22;15272792;19;20077;-54
2023/02/19 18:41:19;;;;;;;1.60;1.50;;;;;;;3.69;100.00;99144.94;15269886;19;20612;-54
2023/02/19 18:46:44;;;;;;;1.87;1.53;;;;;;;3.69;100.00;99145.81;15270994;19;20769;-53
2023/02/19 18:52:09;;;;;;;2.55;1.88;;;;;;;3.72;100.00;99149.19;15268089;19;20030;-54
2023/02/19 18:57:43;;;;;;;2.42;2.10;;;;;;;3.73;100.00;99148.25;15259529;19;20036;-52
2023/02/19 19:03:07;;;;;;;4.90;2.20;;;;;;;3.75;100.00;99152.56;15272832;19;20021;-52
2023/02/19 19:08:33;;;;;;;3.97;2.58;;;;;;;3.80;100.00;99178.91;15273633;19;20013;-50
2023/02/19 19:14:00;;;;;;;3.30;2.80;;;;;;;3.81;100.00;99170.78;15271013;19;20018;-54
2023/02/19 19:19:26;;;;;;;3.58;2.75;;;;;;;3.83;100.00;99182.22;15273810;19;20026;-54
2023/02/19 19:24:50;;;;;;;3.60;3.20;;;;;;;3.89;100.00;99196.97;15268413;19;20022;-52
2023/02/19 19:30:19;;;;;;;4.72;3.63;;;;;;;3.93;100.00;99201.16;15266564;19;20006;-57
2023/02/19 19:35:44;;;;;;;3.55;3.25;;;;;;;3.96;100.00;99202.75;15270042;19;20010;-57
2023/02/19 19:41:10;;;;;;;3.88;3.47;;;;;;;4.00;100.00;99201.56;15270868;19;20360;-54
2023/02/19 19:46:44;;;;;;;3.45;3.22;;;;;;;4.04;100.00;99202.25;15267660;19;20448;-51
2023/02/19 19:52:08;;;;;;;4.70;4.30;;;;;;;4.06;100.00;99216.34;15270704;19;20018;-53
2023/02/19 19:57:39;;;;;;;5.38;4.88;;;;;;;4.09;100.00;99209.00;15267246;19;20026;-58
2023/02/19 20:03:06;;;;;;;5.17;4.67;;;;;;;4.12;100.00;99205.25;15264894;19;20510;-52
2023/02/19 20:08:32;;;;;;;5.88;4.20;;;;;;;4.12;100.00;99211.44;15270130;19;20043;-53
2023/02/19 20:13:50;;;;;;;4.30;3.90;;;;;;;4.15;100.00;99213.06;15268184;19;20349;-54
2023/02/19 20:19:19;;;;;;;4.47;4.07;;;;;;;4.16;100.00;99212.13;15270989;19;20010;-52
2023/02/19 20:24:43;;;;;;;4.30;3.90;;;;;;;4.18;100.00;99209.34;15267974;19;20026;-54
2023/02/19 20:30:09;;;;;;;4.75;4.28;;;;;;;4.17;100.00;99208.50;15269143;19;20018;-55
2023/02/19 20:35:37;;;;;;;4.20;3.80;;;;;;;4.19;100.00;99214.56;15259184;19;20575;-52
2023/02/19 20:41:02;;;;;;;4.22;3.80;;;;;;;4.19;100.00;99187.03;15265818;19;20011;-52
2023/02/19 20:46:26;;;;;;;4.05;3.72;;;;;;;4.21;100.00;99198.47;15271130;19;20034;-54
2023/02/19 20:51:56;;;;;;;4.45;4.05;;;;;;;4.19;100.00;99211.88;15283076;19;20018;-54
2023/02/19 20:57:28;;;;;;;4.27;3.87;;;;;;;4.20;100.00;99215.44;15262969;19;20027;-50
2023/02/19 21:02:53;;;;;;;4.78;4.32;;;;;;;4.21;100.00;99219.81;15281555;19;20086;-52
2023/02/19 21:08:20;;;;;;;4.30;3.90;;;;;;;4.21;100.00;99207.31;15279027;19;20894;-55
2023/02/19 21:13:44;;;;;;;4.97;3.80;;;;;;;4.19;100.00;99222.56;15279884;19;20415;-54
2023/02/19 21:19:10;;;;;;;4.13;3.65;;;;;;;4.21;100.00;99219.81;15281850;19;20022;-54
2023/02/19 21:24:37;;;;;;;3.90;3.60;;;;;;;4.20;100.00;99224.28;15278913;19;20018;-53
2023/02/19 21:30:02;;;;;;;3.80;3.50;;;;;;;4.24;100.00;99230.25;15281323;19;20498;-53
2023/02/19 21:35:27;;;;;;;5.25;3.83;;;;;;;4.25;100.00;99230.19;15277576;19;20496;-52
2023/02/19 21:40:55;;;;;;;4.00;3.60;;;;;;;4.27;100.00;99238.06;15274566;19;20512;-51
2023/02/19 21:46:20;;;;;;;5.38;4.88;;;;;;;4.30;100.00;99240.53;15274826;19;20021;-51
2023/02/19 21:51:48;;;;;;;6.07;5.47;;;;;;;4.32;100.00;99238.63;15273083;19;20022;-54
2023/02/19 21:57:16;;;;;;;4.90;4.40;;;;;;;4.34;100.00;99231.38;15274856;19;20034;-52
2023/02/19 22:02:42;;;;;;;4.60;4.20;;;;;;;4.37;100.00;99243.66;15277748;19;20606;-50
2023/02/19 22:08:07;;;;;;;5.30;4.80;;;;;;;4.36;100.00;99241.94;15276545;19;20010;-54
2023/02/19 22:13:34;;;;;;;5.25;4.75;;;;;;;4.39;100.00;99236.41;15274058;19;20019;-54
2023/02/19 22:19:00;;;;;;;5.32;4.82;;;;;;;4.38;100.00;99232.88;15272690;19;20022;-51
2023/02/19 22:24:27;;;;;;;5.90;5.30;;;;;;;4.38;100.00;99232.03;15275867;19;20024;-54
2023/02/19 22:29:54;;;;;;;5.90;5.30;;;;;;;4.39;100.00;99234.59;15278241;19;20451;-54
2023/02/19 22:35:19;;;;;;;5.22;4.72;;;;;;;4.42;100.00;99228.19;15266604;19;20637;-54
2023/02/19 22:40:43;;;;;;;5.18;4.68;;;;;;;4.44;100.00;99220.94;15268917;19;20045;-54
2023/02/19 22:46:12;;;;;;;5.45;4.95;;;;;;;4.43;100.00;99229.91;15275162;19;20018;-55
2023/02/19 22:51:37;;;;;;;5.10;4.60;;;;;;;4.44;100.00;99224.47;15273095;19;20027;-52
2023/02/19 22:57:03;;;;;;;5.00;4.60;;;;;;;4.47;100.00;99220.75;15271044;19;20030;-52
2023/02/19 23:02:30;;;;;;;5.10;4.70;;;;;;;4.50;100.00;99228.53;15270380;19;20021;-50
2023/02/19 23:07:55;;;;;;;4.65;4.22;;;;;;;4.52;100.00;99229.31;15269562;19;20025;-54
2023/02/19 23:13:19;;;;;;;5.65;4.88;;;;;;;4.54;100.00;99227.38;15272289;19;20034;-52
2023/02/19 23:18:47;;;;;;;6.00;5.40;;;;;;;4.55;100.00;99234.41;15271132;19;20007;-53
2023/02/19 23:24:13;;;;;;;6.43;5.82;;;;;;;4.58;100.00;99239.56;15270805;19;20015;-50
2023/02/19 23:29:38;;;;;;;6.38;5.78;;;;;;;4.60;100.00;99242.97;15273706;19;20014;-53
2023/02/19 23:35:05;;;;;;;7.07;6.38;;;;;;;4.62;100.00;99241.06;15271921;19;20021;-54
2023/02/19 23:40:30;;;;;;;6.78;6.18;;;;;;;4.66;100.00;99232.84;15273728;19;20015;-52
2023/02/19 23:45:54;;;;;;;6.88;6.28;;;;;;;4.68;100.00;99231.78;15264317;19;20018;-52
2023/02/19 23:51:22;;;;;;;7.20;6.38;;;;;;;4.73;100.00;99237.66;15269555;19;20021;-51
2023/02/19 23:56:46;;;;;;;7.18;6.40;;;;;;;4.85;100.00;99249.34;15268817;19;20019;-50
